Huntington Bay, New York
Current Conditions -  °F | °C
As of 12:27 AM on Wednesday 22 Oct 2014 (Local Time) from KFRG Reporting Station
Overcast Overcast  
Wind Chill: 58°   Ceiling: 5000
Heat Index: 58°   Visibility: 10mi
Dew Point: 55°   Wind: 7mph
Humidity: 90%   Direction: 60°ENE
Pressure: 29.9"   Gusts: NA
Location:  40.8966°N, 73.4362°W
Report Text: KFRG 220427Z AUTO 06006KT 10SM FEW009 BKN050 OVC060 14/13 A2990 RMK AO2 T01440128
Loading
Personal Weather Stations






























Interactive Weather Map
Tropical Storm Tracking
New forecast layout! Learn more

10-Day Weather Forecast

Advertisements
Track Severe Weather on mobile